Terminal Aerodrome Forecast
Issued by NWS

Home | Current Version | Previous Version | Text Only | Print | Product List | Glossary On
Versions: 1 2 3 4 5 6 7 8 9 10 11 12 13 14 15 16 17 18 19 20 21 22 23 24
000
FTUS46 KSGX 150300 AAA
TAFSAN
TAF AMD
KSAN 150304Z 1503/1606 30004KT P6SM FEW007
     FM151900 30009KT P6SM SKC
     FM160000 VRB04KT P6SM FEW007=

USA.gov is the U.S. government's official web portal to all federal, state and local government web resources and services.